sensor_id;sensor_type;location;lat;lon;timestamp;pressure;altitude;pressure_sealevel;temperature;humidity
57412;BME280;43247;52.828;-8.980;2024-03-02T00:00:21;99574.42;;;4.45;82.31
57412;BME280;43247;52.828;-8.980;2024-03-02T00:01:20;99575.01;;;4.46;82.27
57412;BME280;43247;52.828;-8.980;2024-03-02T00:02:20;99574.81;;;4.48;82.15
57412;BME280;43247;52.828;-8.980;2024-03-02T00:03:20;99573.89;;;4.46;82.17
57412;BME280;43247;52.828;-8.980;2024-03-02T00:04:20;99574.84;;;4.46;82.21
57412;BME280;43247;52.828;-8.980;2024-03-02T00:05:22;99571.21;;;4.44;82.19
57412;BME280;43247;52.828;-8.980;2024-03-02T00:06:21;99572.66;;;4.45;82.15
57412;BME280;43247;52.828;-8.980;2024-03-02T00:07:21;99573.56;;;4.44;82.19
57412;BME280;43247;52.828;-8.980;2024-03-02T00:08:24;99574.10;;;4.43;82.24
57412;BME280;43247;52.828;-8.980;2024-03-02T00:09:21;99577.52;;;4.43;82.24
57412;BME280;43247;52.828;-8.980;2024-03-02T00:10:25;99574.51;;;4.42;82.26
57412;BME280;43247;52.828;-8.980;2024-03-02T00:11:22;99579.00;;;4.41;82.31
57412;BME280;43247;52.828;-8.980;2024-03-02T00:12:23;99579.18;;;4.42;82.31
57412;BME280;43247;52.828;-8.980;2024-03-02T00:13:22;99578.12;;;4.41;82.36
57412;BME280;43247;52.828;-8.980;2024-03-02T00:14:23;99580.63;;;4.41;82.39
57412;BME280;43247;52.828;-8.980;2024-03-02T00:15:39;99577.74;;;4.40;82.36
57412;BME280;43247;52.828;-8.980;2024-03-02T00:16:23;99580.24;;;4.39;82.45
57412;BME280;43247;52.828;-8.980;2024-03-02T00:17:25;99580.42;;;4.40;82.42
57412;BME280;43247;52.828;-8.980;2024-03-02T00:18:26;99582.72;;;4.38;82.46
57412;BME280;43247;52.828;-8.980;2024-03-02T00:19:24;99583.37;;;4.39;82.41
57412;BME280;43247;52.828;-8.980;2024-03-02T00:20:24;99583.49;;;4.39;82.43
57412;BME280;43247;52.828;-8.980;2024-03-02T00:21:26;99585.61;;;4.38;82.42
57412;BME280;43247;52.828;-8.980;2024-03-02T00:22:24;99581.76;;;4.37;82.40
57412;BME280;43247;52.828;-8.980;2024-03-02T00:23:27;99581.68;;;4.36;82.43
57412;BME280;43247;52.828;-8.980;2024-03-02T00:24:31;99582.94;;;4.38;82.39
57412;BME280;43247;52.828;-8.980;2024-03-02T00:25:25;99583.57;;;4.35;82.49
57412;BME280;43247;52.828;-8.980;2024-03-02T00:26:25;99583.19;;;4.35;82.51
57412;BME280;43247;52.828;-8.980;2024-03-02T00:27:25;99584.23;;;4.37;82.42
57412;BME280;43247;52.828;-8.980;2024-03-02T00:28:27;99581.48;;;4.33;82.54
57412;BME280;43247;52.828;-8.980;2024-03-02T00:29:27;99584.69;;;4.37;82.45
57412;BME280;43247;52.828;-8.980;2024-03-02T00:30:38;99580.54;;;4.34;82.51
57412;BME280;43247;52.828;-8.980;2024-03-02T00:31:27;99584.02;;;4.33;82.55
57412;BME280;43247;52.828;-8.980;2024-03-02T00:32:27;99585.22;;;4.34;82.52
57412;BME280;43247;52.828;-8.980;2024-03-02T00:33:30;99589.39;;;4.33;82.58
57412;BME280;43247;52.828;-8.980;2024-03-02T00:34:27;99586.03;;;4.34;82.49
57412;BME280;43247;52.828;-8.980;2024-03-02T00:35:27;99585.22;;;4.36;82.47
57412;BME280;43247;52.828;-8.980;2024-03-02T00:36:28;99587.33;;;4.34;82.49
57412;BME280;43247;52.828;-8.980;2024-03-02T00:37:28;99587.75;;;4.34;82.52
57412;BME280;43247;52.828;-8.980;2024-03-02T00:38:29;99584.92;;;4.33;82.51
57412;BME280;43247;52.828;-8.980;2024-03-02T00:39:29;99587.68;;;4.32;82.51
57412;BME280;43247;52.828;-8.980;2024-03-02T00:40:29;99587.68;;;4.30;82.57
57412;BME280;43247;52.828;-8.980;2024-03-02T00:41:30;99591.61;;;4.32;82.58
57412;BME280;43247;52.828;-8.980;2024-03-02T00:42:29;99589.97;;;4.32;82.59
57412;BME280;43247;52.828;-8.980;2024-03-02T00:44:30;99588.29;;;4.32;82.61
57412;BME280;43247;52.828;-8.980;2024-03-02T00:45:30;99592.34;;;4.32;82.58
57412;BME280;43247;52.828;-8.980;2024-03-02T00:46:33;99591.34;;;4.32;82.58
57412;BME280;43247;52.828;-8.980;2024-03-02T00:47:30;99596.84;;;4.33;82.53
57412;BME280;43247;52.828;-8.980;2024-03-02T00:48:31;99595.43;;;4.31;82.54
57412;BME280;43247;52.828;-8.980;2024-03-02T00:49:31;99598.98;;;4.32;82.48
57412;BME280;43247;52.828;-8.980;2024-03-02T00:50:31;99601.34;;;4.31;82.50
57412;BME280;43247;52.828;-8.980;2024-03-02T00:51:33;99603.33;;;4.29;82.57
57412;BME280;43247;52.828;-8.980;2024-03-02T00:52:31;99600.10;;;4.29;82.62
57412;BME280;43247;52.828;-8.980;2024-03-02T00:53:32;99603.38;;;4.29;82.63
57412;BME280;43247;52.828;-8.980;2024-03-02T00:54:32;99601.80;;;4.30;82.58
57412;BME280;43247;52.828;-8.980;2024-03-02T00:55:36;99601.24;;;4.28;82.67
57412;BME280;43247;52.828;-8.980;2024-03-02T00:56:33;99600.73;;;4.30;82.60
57412;BME280;43247;52.828;-8.980;2024-03-02T00:57:34;99597.18;;;4.29;82.64
57412;BME280;43247;52.828;-8.980;2024-03-02T00:58:33;99598.77;;;4.30;82.66
57412;BME280;43247;52.828;-8.980;2024-03-02T00:59:33;99597.79;;;4.30;82.66
57412;BME280;43247;52.828;-8.980;2024-03-02T01:00:33;99602.63;;;4.28;82.70
57412;BME280;43247;52.828;-8.980;2024-03-02T01:01:33;99602.40;;;4.29;82.67
57412;BME280;43247;52.828;-8.980;2024-03-02T01:02:33;99601.57;;;4.29;82.65
57412;BME280;43247;52.828;-8.980;2024-03-02T01:03:34;99599.12;;;4.29;82.60
57412;BME280;43247;52.828;-8.980;2024-03-02T01:04:34;99599.51;;;4.28;82.62
57412;BME280;43247;52.828;-8.980;2024-03-02T01:05:34;99594.30;;;4.30;82.54
57412;BME280;43247;52.828;-8.980;2024-03-02T01:06:35;99595.75;;;4.29;82.61
57412;BME280;43247;52.828;-8.980;2024-03-02T01:07:38;99595.67;;;4.28;82.64
57412;BME280;43247;52.828;-8.980;2024-03-02T01:08:36;99595.69;;;4.27;82.65
57412;BME280;43247;52.828;-8.980;2024-03-02T01:09:36;99594.75;;;4.28;82.61
57412;BME280;43247;52.828;-8.980;2024-03-02T01:10:36;99595.72;;;4.27;82.60
57412;BME280;43247;52.828;-8.980;2024-03-02T01:11:36;99599.69;;;4.26;82.60
57412;BME280;43247;52.828;-8.980;2024-03-02T01:12:37;99596.71;;;4.27;82.57
57412;BME280;43247;52.828;-8.980;2024-03-02T01:13:37;99596.35;;;4.27;82.51
57412;BME280;43247;52.828;-8.980;2024-03-02T01:14:37;99596.81;;;4.26;82.54
57412;BME280;43247;52.828;-8.980;2024-03-02T01:15:37;99599.21;;;4.24;82.58
57412;BME280;43247;52.828;-8.980;2024-03-02T01:16:37;99596.15;;;4.23;82.61
57412;BME280;43247;52.828;-8.980;2024-03-02T01:17:38;99599.61;;;4.22;82.62
57412;BME280;43247;52.828;-8.980;2024-03-02T01:18:38;99601.75;;;4.21;82.62
57412;BME280;43247;52.828;-8.980;2024-03-02T01:19:38;99602.33;;;4.23;82.56
57412;BME280;43247;52.828;-8.980;2024-03-02T01:20:38;99601.17;;;4.22;82.56
57412;BME280;43247;52.828;-8.980;2024-03-02T01:21:38;99602.50;;;4.21;82.59
57412;BME280;43247;52.828;-8.980;2024-03-02T01:22:38;99605.88;;;4.22;82.57
57412;BME280;43247;52.828;-8.980;2024-03-02T01:23:39;99607.81;;;4.21;82.53
57412;BME280;43247;52.828;-8.980;2024-03-02T01:24:39;99606.03;;;4.19;82.65
57412;BME280;43247;52.828;-8.980;2024-03-02T01:25:39;99603.47;;;4.19;82.65
57412;BME280;43247;52.828;-8.980;2024-03-02T01:26:39;99607.12;;;4.20;82.61
57412;BME280;43247;52.828;-8.980;2024-03-02T01:27:39;99609.27;;;4.21;82.58
57412;BME280;43247;52.828;-8.980;2024-03-02T01:28:40;99610.72;;;4.19;82.58
57412;BME280;43247;52.828;-8.980;2024-03-02T01:29:40;99608.27;;;4.18;82.60
57412;BME280;43247;52.828;-8.980;2024-03-02T01:30:40;99606.55;;;4.17;82.66
57412;BME280;43247;52.828;-8.980;2024-03-02T01:31:40;99609.20;;;4.19;82.57
57412;BME280;43247;52.828;-8.980;2024-03-02T01:32:41;99610.40;;;4.19;82.58
57412;BME280;43247;52.828;-8.980;2024-03-02T01:33:41;99604.55;;;4.18;82.55
57412;BME280;43247;52.828;-8.980;2024-03-02T01:34:41;99608.92;;;4.17;82.53
57412;BME280;43247;52.828;-8.980;2024-03-02T01:35:42;99607.91;;;4.16;82.52
57412;BME280;43247;52.828;-8.980;2024-03-02T01:36:42;99608.04;;;4.14;82.61
57412;BME280;43247;52.828;-8.980;2024-03-02T01:37:42;99605.32;;;4.16;82.58
57412;BME280;43247;52.828;-8.980;2024-03-02T01:38:42;99603.95;;;4.18;82.50
57412;BME280;43247;52.828;-8.980;2024-03-02T01:39:42;99602.37;;;4.17;82.52
57412;BME280;43247;52.828;-8.980;2024-03-02T01:40:43;99603.29;;;4.15;82.55
57412;BME280;43247;52.828;-8.980;2024-03-02T01:41:43;99603.51;;;4.15;82.58
57412;BME280;43247;52.828;-8.980;2024-03-02T01:42:44;99603.53;;;4.14;82.64
57412;BME280;43247;52.828;-8.980;2024-03-02T01:43:45;99604.70;;;4.14;82.59
57412;BME280;43247;52.828;-8.980;2024-03-02T01:44:45;99606.51;;;4.14;82.58
57412;BME280;43247;52.828;-8.980;2024-03-02T01:45:45;99606.19;;;4.17;82.46
57412;BME280;43247;52.828;-8.980;2024-03-02T01:46:46;99605.30;;;4.14;82.61
57412;BME280;43247;52.828;-8.980;2024-03-02T01:47:46;99603.36;;;4.12;82.64
57412;BME280;43247;52.828;-8.980;2024-03-02T01:48:46;99605.24;;;4.15;82.55
57412;BME280;43247;52.828;-8.980;2024-03-02T01:49:46;99606.36;;;4.15;82.55
57412;BME280;43247;52.828;-8.980;2024-03-02T01:50:46;99607.96;;;4.13;82.63
57412;BME280;43247;52.828;-8.980;2024-03-02T01:51:47;99607.23;;;4.13;82.60
57412;BME280;43247;52.828;-8.980;2024-03-02T01:52:47;99607.84;;;4.12;82.60
57412;BME280;43247;52.828;-8.980;2024-03-02T01:53:48;99608.69;;;4.13;82.58
57412;BME280;43247;52.828;-8.980;2024-03-02T01:54:48;99608.62;;;4.14;82.55
57412;BME280;43247;52.828;-8.980;2024-03-02T01:55:48;99609.28;;;4.12;82.54
57412;BME280;43247;52.828;-8.980;2024-03-02T01:56:48;99610.70;;;4.10;82.63
57412;BME280;43247;52.828;-8.980;2024-03-02T01:57:49;99607.41;;;4.11;82.62
57412;BME280;43247;52.828;-8.980;2024-03-02T01:58:49;99608.66;;;4.11;82.65
57412;BME280;43247;52.828;-8.980;2024-03-02T01:59:49;99606.22;;;4.10;82.67
57412;BME280;43247;52.828;-8.980;2024-03-02T02:00:49;99605.19;;;4.11;82.67
57412;BME280;43247;52.828;-8.980;2024-03-02T02:01:49;99608.97;;;4.10;82.64
57412;BME280;43247;52.828;-8.980;2024-03-02T02:02:50;99609.68;;;4.08;82.67
57412;BME280;43247;52.828;-8.980;2024-03-02T02:03:50;99610.27;;;4.08;82.66
57412;BME280;43247;52.828;-8.980;2024-03-02T02:04:50;99611.46;;;4.10;82.52
57412;BME280;43247;52.828;-8.980;2024-03-02T02:05:50;99610.22;;;4.10;82.67
57412;BME280;43247;52.828;-8.980;2024-03-02T02:06:50;99612.43;;;4.10;82.66
57412;BME280;43247;52.828;-8.980;2024-03-02T02:07:50;99611.53;;;4.10;82.60
57412;BME280;43247;52.828;-8.980;2024-03-02T02:08:51;99611.63;;;4.10;82.60
57412;BME280;43247;52.828;-8.980;2024-03-02T02:09:51;99614.30;;;4.08;82.64
57412;BME280;43247;52.828;-8.980;2024-03-02T02:10:51;99612.75;;;4.09;82.58
57412;BME280;43247;52.828;-8.980;2024-03-02T02:11:52;99611.28;;;4.10;82.55
57412;BME280;43247;52.828;-8.980;2024-03-02T02:12:52;99613.78;;;4.10;82.56
57412;BME280;43247;52.828;-8.980;2024-03-02T02:13:52;99612.28;;;4.09;82.59
57412;BME280;43247;52.828;-8.980;2024-03-02T02:14:52;99613.19;;;4.09;82.55
57412;BME280;43247;52.828;-8.980;2024-03-02T02:15:52;99612.14;;;4.10;82.51
57412;BME280;43247;52.828;-8.980;2024-03-02T02:16:52;99612.60;;;4.09;82.52
57412;BME280;43247;52.828;-8.980;2024-03-02T02:17:53;99611.77;;;4.09;82.46
57412;BME280;43247;52.828;-8.980;2024-03-02T02:18:53;99613.34;;;4.08;82.52
57412;BME280;43247;52.828;-8.980;2024-03-02T02:19:53;99613.22;;;4.08;82.46
57412;BME280;43247;52.828;-8.980;2024-03-02T02:20:53;99615.53;;;4.09;82.44
57412;BME280;43247;52.828;-8.980;2024-03-02T02:21:53;99616.59;;;4.08;82.44
57412;BME280;43247;52.828;-8.980;2024-03-02T02:22:55;99616.77;;;4.08;82.42
57412;BME280;43247;52.828;-8.980;2024-03-02T02:23:54;99614.80;;;4.09;82.37
57412;BME280;43247;52.828;-8.980;2024-03-02T02:24:54;99616.01;;;4.08;82.42
57412;BME280;43247;52.828;-8.980;2024-03-02T02:25:54;99620.19;;;4.08;82.39
57412;BME280;43247;52.828;-8.980;2024-03-02T02:26:54;99618.20;;;4.06;82.40
57412;BME280;43247;52.828;-8.980;2024-03-02T02:27:56;99616.67;;;4.07;82.37
57412;BME280;43247;52.828;-8.980;2024-03-02T02:28:55;99616.22;;;4.07;82.37
57412;BME280;43247;52.828;-8.980;2024-03-02T02:29:56;99616.00;;;4.06;82.40
57412;BME280;43247;52.828;-8.980;2024-03-02T02:30:56;99615.67;;;4.07;82.37
57412;BME280;43247;52.828;-8.980;2024-03-02T02:31:56;99616.53;;;4.06;82.41
57412;BME280;43247;52.828;-8.980;2024-03-02T02:32:56;99617.44;;;4.06;82.37
57412;BME280;43247;52.828;-8.980;2024-03-02T02:33:56;99617.87;;;4.05;82.37
57412;BME280;43247;52.828;-8.980;2024-03-02T02:34:57;99619.37;;;4.05;82.37
57412;BME280;43247;52.828;-8.980;2024-03-02T02:35:57;99619.74;;;4.03;82.47
57412;BME280;43247;52.828;-8.980;2024-03-02T02:36:57;99617.38;;;4.04;82.43
57412;BME280;43247;52.828;-8.980;2024-03-02T02:37:58;99617.34;;;4.01;82.52
57412;BME280;43247;52.828;-8.980;2024-03-02T02:39:01;99620.65;;;4.04;82.46
57412;BME280;43247;52.828;-8.980;2024-03-02T02:39:59;99621.01;;;4.03;82.47
57412;BME280;43247;52.828;-8.980;2024-03-02T02:40:59;99620.47;;;4.02;82.51
57412;BME280;43247;52.828;-8.980;2024-03-02T02:41:59;99623.38;;;4.02;82.49
57412;BME280;43247;52.828;-8.980;2024-03-02T02:42:59;99621.02;;;4.02;82.49
57412;BME280;43247;52.828;-8.980;2024-03-02T02:43:59;99624.08;;;4.01;82.51
57412;BME280;43247;52.828;-8.980;2024-03-02T02:45:00;99623.41;;;4.01;82.49
57412;BME280;43247;52.828;-8.980;2024-03-02T02:46:00;99623.47;;;4.01;82.49
57412;BME280;43247;52.828;-8.980;2024-03-02T02:47:00;99624.49;;;4.00;82.49
57412;BME280;43247;52.828;-8.980;2024-03-02T02:48:00;99623.31;;;4.00;82.46
57412;BME280;43247;52.828;-8.980;2024-03-02T02:49:00;99620.57;;;3.99;82.50
57412;BME280;43247;52.828;-8.980;2024-03-02T02:50:02;99617.52;;;3.99;82.51
57412;BME280;43247;52.828;-8.980;2024-03-02T02:51:01;99616.54;;;4.00;82.46
57412;BME280;43247;52.828;-8.980;2024-03-02T02:52:01;99615.76;;;3.99;82.44
57412;BME280;43247;52.828;-8.980;2024-03-02T02:53:01;99614.13;;;3.98;82.45
57412;BME280;43247;52.828;-8.980;2024-03-02T02:54:01;99614.78;;;3.96;82.47
57412;BME280;43247;52.828;-8.980;2024-03-02T02:55:03;99615.38;;;3.98;82.42
57412;BME280;43247;52.828;-8.980;2024-03-02T02:56:02;99618.07;;;3.98;82.44
57412;BME280;43247;52.828;-8.980;2024-03-02T02:57:02;99618.11;;;3.97;82.41
57412;BME280;43247;52.828;-8.980;2024-03-02T02:58:02;99617.06;;;3.97;82.42
57412;BME280;43247;52.828;-8.980;2024-03-02T02:59:02;99619.25;;;3.96;82.41
57412;BME280;43247;52.828;-8.980;2024-03-02T03:00:06;99620.29;;;3.97;82.37
57412;BME280;43247;52.828;-8.980;2024-03-02T03:01:04;99620.77;;;3.95;82.38
57412;BME280;43247;52.828;-8.980;2024-03-02T03:02:04;99620.31;;;3.96;82.35
57412;BME280;43247;52.828;-8.980;2024-03-02T03:03:04;99621.55;;;3.95;82.36
57412;BME280;43247;52.828;-8.980;2024-03-02T03:04:04;99622.37;;;3.95;82.39
57412;BME280;43247;52.828;-8.980;2024-03-02T03:05:05;99621.07;;;3.94;82.42
57412;BME280;43247;52.828;-8.980;2024-03-02T03:06:05;99622.61;;;3.93;82.44
57412;BME280;43247;52.828;-8.980;2024-03-02T03:07:05;99622.02;;;3.94;82.44
57412;BME280;43247;52.828;-8.980;2024-03-02T03:08:05;99619.58;;;3.94;82.41
57412;BME280;43247;52.828;-8.980;2024-03-02T03:09:05;99618.84;;;3.92;82.46
57412;BME280;43247;52.828;-8.980;2024-03-02T03:10:07;99620.50;;;3.92;82.48
57412;BME280;43247;52.828;-8.980;2024-03-02T03:11:06;99617.30;;;3.93;82.47
57412;BME280;43247;52.828;-8.980;2024-03-02T03:12:06;99615.71;;;3.91;82.53
57412;BME280;43247;52.828;-8.980;2024-03-02T03:13:06;99613.19;;;3.91;82.49
57412;BME280;43247;52.828;-8.980;2024-03-02T03:14:06;99614.85;;;3.92;82.45
57412;BME280;43247;52.828;-8.980;2024-03-02T03:15:08;99609.72;;;3.92;82.46
57412;BME280;43247;52.828;-8.980;2024-03-02T03:16:07;99610.84;;;3.91;82.47
57412;BME280;43247;52.828;-8.980;2024-03-02T03:17:07;99609.33;;;3.91;82.46
57412;BME280;43247;52.828;-8.980;2024-03-02T03:18:07;99610.45;;;3.91;82.45
57412;BME280;43247;52.828;-8.980;2024-03-02T03:19:07;99606.78;;;3.90;82.51
57412;BME280;43247;52.828;-8.980;2024-03-02T03:20:08;99606.90;;;3.91;82.53
57412;BME280;43247;52.828;-8.980;2024-03-02T03:21:08;99604.46;;;3.90;82.52
57412;BME280;43247;52.828;-8.980;2024-03-02T03:22:08;99601.59;;;3.89;82.56
57412;BME280;43247;52.828;-8.980;2024-03-02T03:23:08;99600.38;;;3.91;82.47
57412;BME280;43247;52.828;-8.980;2024-03-02T03:24:09;99601.14;;;3.91;82.44
57412;BME280;43247;52.828;-8.980;2024-03-02T03:25:09;99602.38;;;3.90;82.46
57412;BME280;43247;52.828;-8.980;2024-03-02T03:26:09;99603.55;;;3.90;82.45
57412;BME280;43247;52.828;-8.980;2024-03-02T03:27:10;99602.40;;;3.91;82.44
57412;BME280;43247;52.828;-8.980;2024-03-02T03:28:10;99600.69;;;3.89;82.49
57412;BME280;43247;52.828;-8.980;2024-03-02T03:29:10;99597.89;;;3.91;82.43
57412;BME280;43247;52.828;-8.980;2024-03-02T03:30:11;99600.28;;;3.90;82.47
57412;BME280;43247;52.828;-8.980;2024-03-02T03:31:10;99603.28;;;3.90;82.52
57412;BME280;43247;52.828;-8.980;2024-03-02T03:32:11;99601.84;;;3.91;82.50
57412;BME280;43247;52.828;-8.980;2024-03-02T03:33:11;99602.13;;;3.90;82.54
57412;BME280;43247;52.828;-8.980;2024-03-02T03:34:11;99601.18;;;3.89;82.60
57412;BME280;43247;52.828;-8.980;2024-03-02T03:35:11;99603.67;;;3.90;82.56
57412;BME280;43247;52.828;-8.980;2024-03-02T03:36:11;99606.41;;;3.90;82.58
57412;BME280;43247;52.828;-8.980;2024-03-02T03:37:11;99605.97;;;3.91;82.63
57412;BME280;43247;52.828;-8.980;2024-03-02T03:38:12;99605.36;;;3.90;82.66
57412;BME280;43247;52.828;-8.980;2024-03-02T03:39:12;99606.71;;;3.90;82.66
57412;BME280;43247;52.828;-8.980;2024-03-02T03:40:12;99608.88;;;3.89;82.69
57412;BME280;43247;52.828;-8.980;2024-03-02T03:41:12;99610.95;;;3.90;82.68
57412;BME280;43247;52.828;-8.980;2024-03-02T03:42:12;99610.60;;;3.89;82.70
57412;BME280;43247;52.828;-8.980;2024-03-02T03:43:13;99611.58;;;3.89;82.76
57412;BME280;43247;52.828;-8.980;2024-03-02T03:44:13;99615.81;;;3.88;82.83
57412;BME280;43247;52.828;-8.980;2024-03-02T03:45:13;99613.05;;;3.89;82.81
57412;BME280;43247;52.828;-8.980;2024-03-02T03:46:13;99612.45;;;3.90;82.78
57412;BME280;43247;52.828;-8.980;2024-03-02T03:47:14;99612.59;;;3.90;82.78
57412;BME280;43247;52.828;-8.980;2024-03-02T03:48:14;99612.44;;;3.88;82.82
57412;BME280;43247;52.828;-8.980;2024-03-02T03:49:14;99612.98;;;3.89;82.79
57412;BME280;43247;52.828;-8.980;2024-03-02T03:50:14;99613.02;;;3.88;82.82
57412;BME280;43247;52.828;-8.980;2024-03-02T03:51:14;99611.31;;;3.88;82.83
57412;BME280;43247;52.828;-8.980;2024-03-02T03:52:14;99610.14;;;3.88;82.79
57412;BME280;43247;52.828;-8.980;2024-03-02T03:53:15;99611.61;;;3.89;82.79
57412;BME280;43247;52.828;-8.980;2024-03-02T03:54:15;99611.52;;;3.90;82.79
57412;BME280;43247;52.828;-8.980;2024-03-02T03:55:15;99614.86;;;3.89;82.82
57412;BME280;43247;52.828;-8.980;2024-03-02T03:56:15;99611.31;;;3.88;82.85
57412;BME280;43247;52.828;-8.980;2024-03-02T03:57:16;99608.13;;;3.90;82.88
57412;BME280;43247;52.828;-8.980;2024-03-02T03:58:16;99608.80;;;3.93;83.08
57412;BME280;43247;52.828;-8.980;2024-03-02T03:59:16;99608.93;;;3.98;83.03
57412;BME280;43247;52.828;-8.980;2024-03-02T04:00:17;99608.94;;;4.06;82.82
57412;BME280;43247;52.828;-8.980;2024-03-02T04:01:17;99612.03;;;4.09;82.67
57412;BME280;43247;52.828;-8.980;2024-03-02T04:02:17;99612.85;;;4.10;82.60
57412;BME280;43247;52.828;-8.980;2024-03-02T04:03:17;99612.17;;;4.14;82.42
57412;BME280;43247;52.828;-8.980;2024-03-02T04:04:17;99614.25;;;4.18;82.21
57412;BME280;43247;52.828;-8.980;2024-03-02T04:05:18;99612.97;;;4.19;82.07
57412;BME280;43247;52.828;-8.980;2024-03-02T04:06:18;99614.96;;;4.21;81.97
57412;BME280;43247;52.828;-8.980;2024-03-02T04:07:18;99617.47;;;4.23;81.87
57412;BME280;43247;52.828;-8.980;2024-03-02T04:08:18;99616.15;;;4.23;81.82
57412;BME280;43247;52.828;-8.980;2024-03-02T04:09:18;99617.68;;;4.26;81.73
57412;BME280;43247;52.828;-8.980;2024-03-02T04:10:19;99614.85;;;4.28;81.62
57412;BME280;43247;52.828;-8.980;2024-03-02T04:11:19;99613.87;;;4.28;81.60
57412;BME280;43247;52.828;-8.980;2024-03-02T04:12:19;99612.88;;;4.27;81.63
57412;BME280;43247;52.828;-8.980;2024-03-02T04:13:19;99612.65;;;4.26;81.68
57412;BME280;43247;52.828;-8.980;2024-03-02T04:14:19;99612.70;;;4.26;81.74
57412;BME280;43247;52.828;-8.980;2024-03-02T04:15:20;99614.54;;;4.23;81.89
57412;BME280;43247;52.828;-8.980;2024-03-02T04:16:20;99618.12;;;4.25;81.83
57412;BME280;43247;52.828;-8.980;2024-03-02T04:17:20;99620.16;;;4.23;81.94
57412;BME280;43247;52.828;-8.980;2024-03-02T04:18:20;99621.16;;;4.24;81.91
57412;BME280;43247;52.828;-8.980;2024-03-02T04:19:20;99621.94;;;4.23;81.92
57412;BME280;43247;52.828;-8.980;2024-03-02T04:20:21;99624.66;;;4.22;81.95
57412;BME280;43247;52.828;-8.980;2024-03-02T04:21:21;99623.92;;;4.18;82.06
57412;BME280;43247;52.828;-8.980;2024-03-02T04:22:21;99623.22;;;4.19;82.01
57412;BME280;43247;52.828;-8.980;2024-03-02T04:23:22;99626.39;;;4.17;82.08
57412;BME280;43247;52.828;-8.980;2024-03-02T04:24:22;99630.40;;;4.14;82.17
57412;BME280;43247;52.828;-8.980;2024-03-02T04:25:22;99632.20;;;4.17;82.07
57412;BME280;43247;52.828;-8.980;2024-03-02T04:26:22;99631.49;;;4.14;82.19
57412;BME280;43247;52.828;-8.980;2024-03-02T04:27:22;99631.46;;;4.16;82.16
57412;BME280;43247;52.828;-8.980;2024-03-02T04:28:23;99635.52;;;4.13;82.27
57412;BME280;43247;52.828;-8.980;2024-03-02T04:29:23;99635.64;;;4.12;82.35
57412;BME280;43247;52.828;-8.980;2024-03-02T04:30:23;99632.13;;;4.13;82.32
57412;BME280;43247;52.828;-8.980;2024-03-02T04:31:23;99632.57;;;4.11;82.39
57412;BME280;43247;52.828;-8.980;2024-03-02T04:32:23;99630.32;;;4.10;82.40
57412;BME280;43247;52.828;-8.980;2024-03-02T04:33:24;99629.81;;;4.10;82.41
57412;BME280;43247;52.828;-8.980;2024-03-02T04:34:24;99630.88;;;4.10;82.45
57412;BME280;43247;52.828;-8.980;2024-03-02T04:35:24;99634.18;;;4.11;82.44
57412;BME280;43247;52.828;-8.980;2024-03-02T04:36:24;99633.53;;;4.07;82.56
57412;BME280;43247;52.828;-8.980;2024-03-02T04:37:25;99634.83;;;4.06;82.58
57412;BME280;43247;52.828;-8.980;2024-03-02T04:38:25;99638.07;;;4.07;82.57
57412;BME280;43247;52.828;-8.980;2024-03-02T04:39:25;99638.63;;;4.07;82.56
57412;BME280;43247;52.828;-8.980;2024-03-02T04:40:26;99642.01;;;4.12;82.67
57412;BME280;43247;52.828;-8.980;2024-03-02T04:41:26;99644.24;;;4.16;82.59
57412;BME280;43247;52.828;-8.980;2024-03-02T04:42:26;99646.69;;;4.17;82.62
57412;BME280;43247;52.828;-8.980;2024-03-02T04:43:26;99645.16;;;4.18;82.54
57412;BME280;43247;52.828;-8.980;2024-03-02T04:44:26;99647.47;;;4.21;82.43
57412;BME280;43247;52.828;-8.980;2024-03-02T04:45:27;99644.72;;;4.23;82.30
57412;BME280;43247;52.828;-8.980;2024-03-02T04:46:27;99646.96;;;4.22;82.27
57412;BME280;43247;52.828;-8.980;2024-03-02T04:47:27;99644.01;;;4.25;82.16
57412;BME280;43247;52.828;-8.980;2024-03-02T04:48:27;99646.41;;;4.24;82.12
57412;BME280;43247;52.828;-8.980;2024-03-02T04:49:27;99648.34;;;4.26;82.11
57412;BME280;43247;52.828;-8.980;2024-03-02T04:50:28;99647.45;;;4.22;82.22
57412;BME280;43247;52.828;-8.980;2024-03-02T04:51:28;99647.40;;;4.22;82.25
57412;BME280;43247;52.828;-8.980;2024-03-02T04:52:28;99646.84;;;4.22;82.26
57412;BME280;43247;52.828;-8.980;2024-03-02T04:53:28;99651.70;;;4.25;82.21
57412;BME280;43247;52.828;-8.980;2024-03-02T04:54:28;99651.88;;;4.26;82.18
57412;BME280;43247;52.828;-8.980;2024-03-02T04:55:29;99655.38;;;4.23;82.27
57412;BME280;43247;52.828;-8.980;2024-03-02T04:56:29;99656.73;;;4.18;82.42
57412;BME280;43247;52.828;-8.980;2024-03-02T04:57:29;99660.23;;;4.20;82.39
57412;BME280;43247;52.828;-8.980;2024-03-02T04:58:30;99659.48;;;4.19;82.46
57412;BME280;43247;52.828;-8.980;2024-03-02T04:59:29;99661.62;;;4.20;82.56
57412;BME280;43247;52.828;-8.980;2024-03-02T05:00:30;99660.64;;;4.18;82.68
57412;BME280;43247;52.828;-8.980;2024-03-02T05:01:30;99662.06;;;4.16;82.75
57412;BME280;43247;52.828;-8.980;2024-03-02T05:02:30;99663.55;;;4.18;82.69
57412;BME280;43247;52.828;-8.980;2024-03-02T05:03:30;99665.93;;;4.16;82.78
57412;BME280;43247;52.828;-8.980;2024-03-02T05:04:30;99669.30;;;4.16;82.87
57412;BME280;43247;52.828;-8.980;2024-03-02T05:05:31;99667.78;;;4.16;82.94
57412;BME280;43247;52.828;-8.980;2024-03-02T05:06:31;99669.19;;;4.16;82.98
57412;BME280;43247;52.828;-8.980;2024-03-02T05:07:31;99668.69;;;4.14;83.06
57412;BME280;43247;52.828;-8.980;2024-03-02T05:08:31;99672.54;;;4.14;83.03
57412;BME280;43247;52.828;-8.980;2024-03-02T05:09:31;99671.34;;;4.14;83.06
57412;BME280;43247;52.828;-8.980;2024-03-02T05:10:31;99675.92;;;4.15;83.07
57412;BME280;43247;52.828;-8.980;2024-03-02T05:11:32;99673.10;;;4.14;83.17
57412;BME280;43247;52.828;-8.980;2024-03-02T05:12:32;99672.51;;;4.14;83.20
57412;BME280;43247;52.828;-8.980;2024-03-02T05:13:32;99673.31;;;4.14;83.26
57412;BME280;43247;52.828;-8.980;2024-03-02T05:14:32;99672.60;;;4.16;83.26
57412;BME280;43247;52.828;-8.980;2024-03-02T05:15:32;99672.05;;;4.15;83.34
57412;BME280;43247;52.828;-8.980;2024-03-02T05:16:33;99674.37;;;4.15;83.39
57412;BME280;43247;52.828;-8.980;2024-03-02T05:17:33;99673.66;;;4.15;83.45
57412;BME280;43247;52.828;-8.980;2024-03-02T05:18:33;99677.12;;;4.14;83.52
57412;BME280;43247;52.828;-8.980;2024-03-02T05:19:33;99676.95;;;4.14;83.52